createdAt,value
2022-11-22T00:00:57.903Z,46.25
2022-11-22T00:03:25.788Z,44.47
2022-11-22T00:05:53.589Z,47.28
2022-11-22T00:08:21.631Z,41.38
2022-11-22T00:10:50.933Z,44.42
2022-11-22T00:13:20.038Z,41.53
2022-11-22T00:15:59.523Z,41.25
2022-11-22T00:18:28.361Z,42.47
2022-11-22T00:20:57.184Z,44.25
2022-11-22T00:23:25.121Z,37.58
2022-11-22T00:25:53.151Z,40.58
2022-11-22T00:28:20.978Z,46.97
2022-11-22T00:30:48.867Z,43.65
2022-11-22T00:33:16.700Z,39.35
2022-11-22T00:35:46.542Z,39.58
2022-11-22T00:38:16.900Z,43.30
2022-11-22T00:40:44.900Z,45.65
2022-11-22T00:43:12.902Z,26.85
2022-11-22T00:45:44.330Z,35.85
2022-11-22T00:48:12.646Z,33.60
2022-11-22T00:50:40.538Z,25.00
2022-11-22T00:53:08.654Z,17.35
2022-11-22T00:55:36.544Z,16.08
2022-11-22T00:58:04.514Z,16.75
2022-11-22T01:00:32.570Z,15.05
2022-11-22T01:03:00.570Z,17.00
2022-11-22T01:05:28.459Z,12.20
2022-11-22T01:07:56.628Z,13.77
2022-11-22T01:10:24.553Z,12.40
2022-11-22T01:12:52.434Z,11.10
2022-11-22T01:15:20.310Z,13.10
2022-11-22T01:17:48.181Z,8.15
2022-11-22T01:20:16.355Z,20.05
2022-11-22T01:22:44.272Z,22.95
2022-11-22T01:25:12.190Z,22.13
2022-11-22T01:27:39.998Z,15.23
2022-11-22T01:30:08.329Z,11.50
2022-11-22T01:32:37.481Z,7.40
2022-11-22T01:35:05.669Z,8.20
2022-11-22T01:37:33.597Z,6.57
2022-11-22T01:40:01.368Z,4.72
2022-11-22T01:42:55.477Z,7.07
2022-11-22T01:45:49.332Z,8.13
2022-11-22T01:48:51.576Z,4.67
2022-11-22T01:51:24.188Z,5.55
2022-11-22T01:53:55.101Z,6.55
2022-11-22T01:56:25.126Z,2.85
2022-11-22T01:58:59.144Z,2.72
2022-11-22T02:01:28.713Z,3.58
2022-11-22T02:03:59.528Z,2.95
2022-11-22T02:06:52.654Z,2.10
2022-11-22T02:09:21.734Z,1.90
2022-11-22T02:11:54.232Z,1.48
2022-11-22T02:14:26.144Z,0.93
2022-11-22T02:16:54.112Z,1.50
2022-11-22T02:19:38.131Z,1.98
2022-11-22T02:22:19.578Z,0.85
2022-11-22T02:25:12.045Z,0.80
2022-11-22T02:27:40.631Z,1.25
2022-11-22T02:30:10.467Z,0.98
2022-11-22T02:32:38.409Z,1.17
2022-11-22T02:35:23.305Z,2.25
2022-11-22T02:38:08.319Z,1.35
2022-11-22T02:40:59.918Z,1.00
2022-11-22T02:43:31.487Z,1.23
2022-11-22T02:46:07.270Z,2.15
2022-11-22T02:48:40.676Z,1.33
2022-11-22T02:51:08.821Z,1.10
2022-11-22T02:53:36.886Z,0.65
2022-11-22T02:56:05.106Z,1.40
2022-11-22T02:58:33.071Z,1.27
2022-11-22T03:01:01.323Z,1.00
2022-11-22T03:03:29.282Z,2.17
2022-11-22T03:05:57.137Z,5.05
2022-11-22T03:08:24.962Z,1.75
2022-11-22T03:10:52.882Z,0.98
2022-11-22T03:13:20.983Z,2.47
2022-11-22T03:15:48.997Z,3.22
2022-11-22T03:18:19.574Z,1.42
2022-11-22T03:20:47.471Z,2.05
2022-11-22T03:23:15.439Z,1.30
2022-11-22T03:25:43.854Z,1.55
2022-11-22T03:28:11.947Z,1.63
2022-11-22T03:30:41.486Z,0.75
2022-11-22T03:33:09.867Z,3.47
2022-11-22T03:35:38.089Z,1.55
2022-11-22T03:38:06.141Z,2.88
2022-11-22T03:40:34.807Z,2.28
2022-11-22T03:43:04.591Z,1.30
2022-11-22T03:45:34.209Z,2.10
2022-11-22T03:48:02.136Z,1.33
2022-11-22T03:50:30.172Z,1.17
2022-11-22T03:52:58.138Z,1.25
2022-11-22T03:55:26.144Z,1.30
2022-11-22T03:57:54.247Z,1.25
2022-11-22T04:00:22.333Z,1.10
2022-11-22T04:02:51.892Z,1.27
2022-11-22T04:05:19.742Z,2.90
2022-11-22T04:07:47.734Z,1.55
2022-11-22T04:10:19.317Z,2.15
2022-11-22T04:12:50.019Z,1.88
2022-11-22T04:15:18.060Z,1.55
2022-11-22T04:17:46.414Z,2.15
2022-11-22T04:20:36.914Z,1.20
2022-11-22T04:23:10.099Z,2.53
2022-11-22T04:25:42.385Z,2.83
2022-11-22T04:28:11.824Z,1.55
2022-11-22T04:30:58.660Z,2.30
2022-11-22T04:33:26.816Z,1.55
2022-11-22T04:35:55.235Z,1.00
2022-11-22T04:38:25.931Z,1.33
2022-11-22T04:40:54.136Z,1.13
2022-11-22T04:43:41.779Z,1.30
2022-11-22T04:46:10.082Z,2.50
2022-11-22T04:48:38.074Z,2.10
2022-11-22T04:51:25.809Z,1.63
2022-11-22T04:53:53.825Z,0.93
2022-11-22T04:56:21.721Z,1.50
2022-11-22T04:58:51.612Z,1.15
2022-11-22T05:01:20.241Z,2.58
2022-11-22T05:03:48.306Z,0.70
2022-11-22T05:06:16.399Z,1.02
2022-11-22T05:08:44.212Z,1.10
2022-11-22T05:11:12.611Z,0.50
2022-11-22T05:13:42.084Z,0.55
2022-11-22T05:16:12.653Z,0.88
2022-11-22T05:18:41.311Z,0.57
2022-11-22T05:21:14.692Z,1.17
2022-11-22T05:23:54.669Z,2.55
2022-11-22T05:26:28.633Z,0.63
2022-11-22T05:29:02.792Z,2.05
2022-11-22T05:31:33.004Z,0.80
2022-11-22T05:34:00.961Z,0.68
2022-11-22T05:36:33.060Z,2.22
2022-11-22T05:39:01.645Z,0.90
2022-11-22T05:41:29.584Z,0.50
2022-11-22T05:43:58.247Z,2.83
2022-11-22T05:46:29.321Z,4.25
2022-11-22T05:48:58.847Z,0.65
2022-11-22T05:51:34.032Z,3.30
2022-11-22T05:54:03.574Z,0.50
2022-11-22T05:56:33.324Z,0.73
2022-11-22T05:59:03.063Z,0.47
2022-11-22T06:01:34.227Z,1.30
2022-11-22T06:04:03.003Z,3.08
2022-11-22T06:06:30.877Z,0.45
2022-11-22T06:08:59.933Z,2.28
2022-11-22T06:11:28.814Z,0.35
2022-11-22T06:14:03.589Z,0.10
2022-11-22T06:16:31.687Z,1.05
2022-11-22T06:19:00.554Z,1.08
2022-11-22T06:21:29.140Z,1.08
2022-11-22T06:23:57.144Z,0.35
2022-11-22T06:26:26.392Z,0.60
2022-11-22T06:28:54.882Z,0.65
2022-11-22T06:31:25.560Z,0.50
2022-11-22T06:33:55.560Z,1.20
2022-11-22T06:36:25.935Z,2.42
2022-11-22T06:38:56.496Z,1.38
2022-11-22T06:41:26.816Z,1.10
2022-11-22T06:43:57.679Z,1.33
2022-11-22T06:46:27.838Z,0.70
2022-11-22T06:48:55.715Z,0.43
2022-11-22T06:51:25.829Z,4.78
2022-11-22T06:53:57.142Z,5.05
2022-11-22T06:56:30.751Z,0.40
2022-11-22T06:59:04.083Z,0.50
2022-11-22T07:01:33.806Z,0.40
2022-11-22T07:04:03.747Z,0.60
2022-11-22T07:06:35.216Z,0.55
2022-11-22T07:09:07.058Z,0.57
2022-11-22T07:11:35.285Z,0.93
2022-11-22T07:14:08.811Z,1.95
2022-11-22T07:16:38.221Z,0.40
2022-11-22T07:19:07.077Z,1.33
2022-11-22T07:21:37.614Z,1.52
2022-11-22T07:24:11.359Z,2.55
2022-11-22T07:26:40.000Z,2.40
2022-11-22T07:29:08.191Z,1.67
2022-11-22T07:31:36.376Z,1.48
2022-11-22T07:34:04.361Z,2.08
2022-11-22T07:36:32.510Z,1.75
2022-11-22T07:39:00.733Z,2.35
2022-11-22T07:41:28.691Z,1.40
2022-11-22T07:43:56.682Z,2.33
2022-11-22T07:46:31.600Z,3.22
2022-11-22T07:49:01.718Z,1.80
2022-11-22T07:51:29.988Z,1.75
2022-11-22T07:53:59.079Z,1.05
2022-11-22T07:56:29.522Z,1.25
2022-11-22T07:58:57.732Z,1.00
2022-11-22T08:01:25.884Z,1.83
2022-11-22T08:03:54.602Z,0.98
2022-11-22T08:06:22.758Z,0.85
2022-11-22T08:08:51.104Z,1.55
2022-11-22T08:11:19.172Z,1.02
2022-11-22T08:13:47.053Z,2.03
2022-11-22T08:16:16.957Z,1.10
2022-11-22T08:18:49.561Z,1.55
2022-11-22T08:21:19.031Z,2.08
2022-11-22T08:23:48.516Z,2.80
2022-11-22T08:26:18.455Z,5.57
2022-11-22T08:28:46.402Z,6.25
2022-11-22T08:31:17.079Z,3.70
2022-11-22T08:33:45.136Z,5.28
2022-11-22T08:36:12.919Z,3.50
2022-11-22T08:38:41.763Z,1.83
2022-11-22T08:41:10.198Z,0.95
2022-11-22T08:43:38.412Z,2.70
2022-11-22T08:46:06.596Z,1.77
2022-11-22T08:48:36.631Z,0.82
2022-11-22T08:51:07.550Z,1.45
2022-11-22T08:53:39.014Z,0.60
2022-11-22T08:56:09.990Z,3.25
2022-11-22T08:58:38.856Z,1.45
2022-11-22T09:01:13.891Z,1.02
2022-11-22T09:03:43.226Z,1.60
2022-11-22T09:09:30.095Z,1.70
2022-11-22T09:11:51.015Z,0.73
2022-11-22T09:14:18.894Z,0.65
2022-11-22T09:16:46.721Z,1.05
2022-11-22T09:19:14.620Z,0.82
2022-11-22T09:21:42.512Z,1.00
2022-11-22T09:24:10.605Z,0.50
2022-11-22T09:26:38.488Z,0.90
2022-11-22T09:29:06.465Z,1.58
2022-11-22T09:31:34.556Z,2.65
2022-11-22T09:34:02.519Z,1.58
2022-11-22T09:36:31.111Z,2.35
2022-11-22T09:38:59.753Z,1.85
2022-11-22T09:41:52.314Z,0.90
2022-11-22T09:44:57.093Z,1.15
2022-11-22T09:47:37.244Z,2.80
2022-11-22T09:50:30.744Z,1.08
2022-11-22T09:53:24.350Z,1.30
2022-11-22T09:55:57.691Z,1.52
2022-11-22T09:58:40.463Z,1.95
2022-11-22T10:01:29.397Z,1.48
2022-11-22T10:04:03.061Z,1.35
2022-11-22T10:06:43.630Z,1.27
2022-11-22T10:09:34.834Z,0.82
2022-11-22T10:12:07.227Z,2.13
2022-11-22T10:14:53.475Z,1.75
2022-11-22T10:17:24.533Z,1.83
2022-11-22T10:20:13.799Z,2.92
2022-11-22T10:22:41.813Z,7.28
2022-11-22T10:25:22.215Z,2.13
2022-11-22T10:28:10.706Z,2.08
2022-11-22T10:30:45.106Z,1.73
2022-11-22T10:33:19.040Z,3.53
2022-11-22T10:36:16.455Z,2.15
2022-11-22T10:38:58.476Z,3.25
2022-11-22T10:41:32.431Z,3.50
2022-11-22T10:44:37.071Z,1.58
2022-11-22T10:47:34.242Z,2.20
2022-11-22T10:50:23.089Z,0.77
2022-11-22T10:52:57.092Z,0.80
2022-11-22T10:58:20.856Z,0.90
2022-11-22T11:00:57.567Z,2.22
2022-11-22T11:03:35.517Z,1.42
2022-11-22T11:06:33.388Z,1.88
2022-11-22T11:11:52.401Z,3.67
2022-11-22T11:14:34.897Z,1.60
2022-11-22T11:17:03.503Z,1.95
2022-11-22T11:19:37.804Z,2.05
2022-11-22T11:24:41.568Z,3.08
2022-11-22T11:27:11.707Z,4.13
2022-11-22T11:30:02.176Z,2.47
2022-11-22T11:32:51.586Z,2.47
2022-11-22T11:35:22.399Z,2.00
2022-11-22T11:37:50.474Z,2.40
2022-11-22T11:40:29.914Z,2.50
2022-11-22T11:43:20.465Z,2.35
2022-11-22T11:45:50.939Z,1.33
2022-11-22T11:48:28.986Z,2.00
2022-11-22T11:51:13.176Z,1.88
2022-11-22T11:54:01.991Z,3.35
2022-11-22T11:56:46.139Z,0.60
2022-11-22T11:59:17.529Z,2.08
2022-11-22T12:02:06.781Z,1.33
2022-11-22T12:04:48.909Z,0.93
2022-11-22T12:07:18.729Z,0.50
2022-11-22T12:09:49.609Z,0.47
2022-11-22T12:12:29.973Z,1.63
2022-11-22T12:15:29.640Z,2.30
2022-11-22T12:18:25.499Z,1.67
2022-11-22T12:21:08.182Z,1.38
2022-11-22T12:23:51.336Z,1.23
2022-11-22T12:26:21.400Z,0.50
2022-11-22T12:28:50.753Z,2.25
2022-11-22T12:31:24.677Z,0.80
2022-11-22T12:34:01.039Z,1.25
2022-11-22T12:36:47.597Z,0.88
2022-11-22T12:39:20.387Z,1.10
2022-11-22T12:41:51.794Z,0.88
2022-11-22T12:44:21.705Z,1.80
2022-11-22T12:47:00.424Z,0.65
2022-11-22T12:49:35.452Z,1.15
2022-11-22T12:52:32.963Z,0.60
2022-11-22T12:55:29.606Z,0.80
2022-11-22T12:58:13.033Z,0.95
2022-11-22T13:01:00.190Z,0.45
2022-11-22T13:03:36.005Z,0.30
2022-11-22T13:06:08.120Z,0.70
2022-11-22T13:08:42.804Z,2.28
2022-11-22T13:11:19.832Z,3.35
2022-11-22T13:13:53.744Z,2.22
2022-11-22T13:16:22.080Z,1.40
2022-11-22T13:18:57.484Z,3.65
2022-11-22T13:21:51.206Z,1.60
2022-11-22T13:25:06.236Z,1.00
2022-11-22T13:27:39.752Z,1.33
2022-11-22T13:30:29.908Z,1.83
2022-11-22T13:33:01.359Z,2.75
2022-11-22T13:35:39.600Z,1.58
2022-11-22T13:38:16.813Z,1.27
2022-11-22T13:40:46.537Z,0.73
2022-11-22T13:43:21.578Z,0.80
2022-11-22T13:46:05.949Z,0.70
2022-11-22T13:48:43.292Z,0.40
2022-11-22T13:51:20.269Z,0.60
2022-11-22T13:53:49.819Z,0.70
2022-11-22T13:56:20.875Z,0.90
2022-11-22T13:58:51.397Z,1.17
2022-11-22T14:01:34.873Z,0.73
2022-11-22T14:04:27.003Z,0.55
2022-11-22T14:07:10.098Z,0.52
2022-11-22T14:09:53.843Z,2.83
2022-11-22T14:12:42.096Z,1.03
2022-11-22T14:15:19.992Z,2.35
2022-11-22T14:18:16.032Z,0.70
2022-11-22T14:21:04.802Z,0.70
2022-11-22T14:24:03.845Z,0.50
2022-11-22T14:27:06.066Z,0.43
2022-11-22T14:29:54.037Z,0.88
2022-11-22T14:32:24.434Z,0.30
2022-11-22T14:35:05.121Z,0.63
2022-11-22T14:37:33.071Z,0.80
2022-11-22T14:40:07.681Z,1.88
2022-11-22T14:42:40.276Z,0.32
2022-11-22T14:45:12.304Z,0.80
2022-11-22T14:47:44.146Z,0.47
2022-11-22T14:50:21.021Z,0.63
2022-11-22T14:52:49.810Z,0.40
2022-11-22T14:55:31.499Z,0.30
2022-11-22T14:58:03.728Z,1.00
2022-11-22T15:01:12.283Z,0.30
2022-11-22T15:09:19.457Z,0.77
2022-11-22T15:09:20.996Z,0.45
2022-11-22T15:10:34.544Z,0.63
2022-11-22T15:13:52.938Z,3.55
2022-11-22T15:59:43.782Z,0.22
2022-11-22T16:02:32.494Z,2.42
2022-11-22T16:06:05.400Z,0.13
2022-11-22T16:07:53.743Z,0.50
2022-11-22T16:10:33.679Z,0.30
2022-11-22T16:13:26.588Z,0.55
2022-11-22T16:16:04.443Z,0.75
2022-11-22T16:18:33.086Z,0.47
2022-11-22T16:21:07.755Z,0.20
2022-11-22T16:23:38.178Z,1.13
2022-11-22T16:26:22.236Z,0.77
2022-11-22T16:28:52.005Z,0.30
2022-11-22T16:31:19.933Z,0.32
2022-11-22T16:33:48.725Z,0.77
2022-11-22T16:36:18.379Z,0.68
2022-11-22T16:38:50.962Z,0.38
2022-11-22T16:41:20.980Z,0.40
2022-11-22T16:43:52.371Z,0.43
2022-11-22T16:46:21.593Z,0.30
2022-11-22T16:48:51.440Z,1.98
2022-11-22T16:51:30.821Z,3.53
2022-11-22T16:54:08.221Z,3.90
2022-11-22T16:56:36.033Z,4.53
2022-11-22T16:59:09.679Z,5.82
2022-11-22T17:01:44.245Z,3.30
2022-11-22T17:04:22.355Z,4.28
2022-11-22T17:06:50.989Z,3.17
2022-11-22T17:09:18.968Z,4.57
2022-11-22T17:11:47.096Z,3.90
2022-11-22T17:14:16.752Z,3.58
2022-11-22T17:16:48.089Z,5.88
2022-11-22T17:19:51.393Z,4.60
2022-11-22T17:22:08.756Z,3.88
2022-11-22T17:24:36.618Z,6.10
2022-11-22T17:27:04.791Z,4.57
2022-11-22T17:29:49.725Z,7.00
2022-11-22T17:32:19.028Z,7.40
2022-11-22T17:34:47.009Z,5.70
2022-11-22T17:37:15.443Z,3.47
2022-11-22T17:39:43.379Z,6.22
2022-11-22T17:42:12.190Z,6.43
2022-11-22T17:44:40.011Z,6.30
2022-11-22T17:47:08.936Z,4.47
2022-11-22T17:49:36.696Z,6.22
2022-11-22T17:52:04.728Z,6.68
2022-11-22T17:54:32.529Z,5.40
2022-11-22T17:57:00.509Z,7.28
2022-11-22T17:59:29.053Z,19.92
2022-11-22T18:01:57.923Z,7.25
2022-11-22T18:04:25.754Z,14.60
2022-11-22T18:06:53.594Z,16.45
2022-11-22T18:09:21.329Z,10.60
2022-11-22T18:11:49.240Z,7.05
2022-11-22T18:14:17.577Z,6.65
2022-11-22T18:16:45.267Z,9.38
2022-11-22T18:19:13.220Z,9.93
2022-11-22T18:21:41.065Z,13.15
2022-11-22T18:24:08.974Z,7.03
2022-11-22T18:26:39.928Z,7.85
2022-11-22T18:31:58.062Z,5.88
2022-11-22T18:34:26.045Z,5.63
2022-11-22T18:36:56.433Z,11.15
2022-11-22T18:39:28.754Z,13.57
2022-11-22T18:41:56.972Z,21.25
2022-11-22T18:44:24.755Z,12.23
2022-11-22T18:46:53.162Z,12.50
2022-11-22T18:49:21.148Z,20.15
2022-11-22T18:51:49.196Z,8.60
2022-11-22T18:54:18.207Z,8.15
2022-11-22T18:56:46.056Z,7.07
2022-11-22T18:59:14.262Z,9.27
2022-11-22T19:01:42.461Z,4.20
2022-11-22T19:04:14.330Z,7.13
2022-11-22T19:06:43.779Z,8.30
2022-11-22T19:09:11.899Z,5.05
2022-11-22T19:11:40.329Z,8.27
2022-11-22T19:14:08.618Z,7.30
2022-11-22T19:16:36.401Z,5.30
2022-11-22T19:19:04.305Z,6.47
2022-11-22T19:21:32.117Z,4.50
2022-11-22T19:24:00.036Z,5.82
2022-11-22T19:26:28.724Z,5.80
2022-11-22T19:28:58.001Z,8.43
2022-11-22T19:31:29.715Z,3.80
2022-11-22T19:33:58.701Z,5.22
2022-11-22T19:36:33.384Z,5.57
2022-11-22T19:39:05.867Z,5.90
2022-11-22T19:41:33.936Z,6.18
2022-11-22T19:44:02.154Z,7.07
2022-11-22T19:46:30.585Z,6.63
2022-11-22T19:48:59.597Z,5.72
2022-11-22T19:51:29.887Z,5.88
2022-11-22T19:54:00.095Z,9.73
2022-11-22T19:56:31.466Z,4.90
2022-11-22T19:59:01.128Z,4.90
2022-11-22T20:01:31.542Z,6.70
2022-11-22T20:04:04.871Z,5.30
2022-11-22T20:06:34.003Z,7.25
2022-11-22T20:09:06.784Z,8.93
2022-11-22T20:11:34.843Z,7.75
2022-11-22T20:14:02.967Z,7.82
2022-11-22T20:16:32.279Z,7.47
2022-11-22T20:19:04.862Z,7.07
2022-11-22T20:21:34.022Z,8.32
2022-11-22T20:24:07.150Z,5.20
2022-11-22T20:26:38.156Z,6.25
2022-11-22T20:29:12.032Z,8.48
2022-11-22T20:31:41.304Z,7.10
2022-11-22T20:34:10.184Z,7.38
2022-11-22T20:36:38.002Z,8.23
2022-11-22T20:39:10.684Z,7.78
2022-11-22T20:41:39.724Z,8.18
2022-11-22T20:44:12.348Z,6.53
2022-11-22T20:46:41.049Z,7.43
2022-11-22T20:49:09.162Z,6.97
2022-11-22T20:51:42.901Z,12.15
2022-11-22T20:54:13.155Z,7.15
2022-11-22T20:56:41.984Z,8.05
2022-11-22T20:59:10.451Z,6.45
2022-11-22T21:01:38.597Z,6.80
2022-11-22T21:04:08.430Z,8.93
2022-11-22T21:06:36.735Z,6.13
2022-11-22T21:09:04.538Z,7.05
2022-11-22T21:11:32.401Z,7.28
2022-11-22T21:14:00.358Z,7.45
2022-11-22T21:16:29.992Z,10.70
2022-11-22T21:19:05.039Z,10.13
2022-11-22T21:21:35.899Z,10.93
2022-11-22T21:24:05.458Z,12.70
2022-11-22T21:26:33.920Z,8.93
2022-11-22T21:29:04.361Z,6.55
2022-11-22T21:31:32.113Z,7.82
2022-11-22T21:33:59.927Z,5.93
2022-11-22T21:36:27.647Z,9.70
2022-11-22T21:38:55.338Z,13.10
2022-11-22T21:41:40.234Z,6.75
2022-11-22T21:44:09.626Z,9.02
2022-11-22T21:46:37.769Z,5.97
2022-11-22T21:49:05.833Z,9.95
2022-11-22T21:51:33.705Z,9.45
2022-11-22T21:54:02.523Z,9.05
2022-11-22T21:56:30.565Z,11.10
2022-11-22T21:58:58.431Z,6.90
2022-11-22T22:01:26.744Z,9.65
2022-11-22T22:03:54.868Z,7.53
2022-11-22T22:06:22.807Z,6.38
2022-11-22T22:08:50.591Z,8.38
2022-11-22T22:11:18.379Z,10.60
2022-11-22T22:13:46.121Z,7.68
2022-11-22T22:16:19.475Z,7.88
2022-11-22T22:18:47.700Z,10.27
2022-11-22T22:21:17.698Z,7.93
2022-11-22T22:23:46.412Z,8.50
2022-11-22T22:26:17.132Z,7.70
2022-11-22T22:28:46.098Z,6.88
2022-11-22T22:31:17.419Z,7.25
2022-11-22T22:33:45.884Z,7.07
2022-11-22T22:36:14.103Z,8.63
2022-11-22T22:38:41.993Z,6.60
2022-11-22T22:41:11.619Z,7.75
2022-11-22T22:43:44.257Z,9.63
2022-11-22T22:46:15.254Z,10.65
2022-11-22T22:48:43.975Z,7.25
2022-11-22T22:51:19.473Z,9.48
2022-11-22T22:53:48.056Z,7.47
2022-11-22T22:56:17.785Z,8.27
2022-11-22T22:58:46.555Z,7.00
2022-11-22T23:01:20.317Z,7.55
2022-11-22T23:03:53.202Z,7.95
2022-11-22T23:06:25.463Z,6.60
2022-11-22T23:08:54.407Z,8.63
2022-11-22T23:11:44.476Z,8.90
2022-11-22T23:14:14.202Z,6.78
2022-11-22T23:16:42.023Z,10.13
2022-11-22T23:19:10.240Z,9.35
2022-11-22T23:21:39.137Z,8.60
2022-11-22T23:24:07.845Z,8.40
2022-11-22T23:26:35.991Z,6.70
2022-11-22T23:29:05.056Z,7.75
2022-11-22T23:31:33.270Z,8.30
2022-11-22T23:34:01.599Z,8.52
2022-11-22T23:36:29.661Z,8.43
2022-11-22T23:38:57.681Z,6.60
2022-11-22T23:41:25.957Z,4.72
2022-11-22T23:43:56.015Z,6.68
2022-11-22T23:46:27.050Z,5.35
2022-11-22T23:48:57.176Z,7.18
2022-11-22T23:51:26.793Z,6.43
2022-11-22T23:53:56.202Z,6.60
2022-11-22T23:56:24.948Z,7.25
2022-11-22T23:58:53.539Z,6.53
